Woody, California
Current Conditions -  °F | °C
As of 5:54 AM on Saturday 22 Nov 2014 (Local Time) from KBFL Reporting Station
Haze Haze  
Wind Chill: 49°   Ceiling: Unl
Heat Index: 49°   Visibility: 4mi
Dew Point: 45°   Wind: 3mph
Humidity: 86%   Direction: 100°E
Pressure: 30.16"   Gusts: NA
Location:  35.66°N, 118.81°W
Report Text: KBFL 221354Z 10003KT 4SM BR CLR 09/07 A3016 RMK AO2 SLP211 T00940072
Loading
Personal Weather Stations






























Interactive Weather Map New forecast layout! Learn more

10-Day Weather Forecast

Advertisements
Track Severe Weather on mobile